Time;durP1;ratioP1;P1;durP2;ratioP2;P2;SDS_P1;SDS_P2;PMS_P1;PMS_P2;Temp;Humidity;BMP_temperature;BMP_pressure;BME280_temperature;BME280_humidity;BME280_pressure;Samples;Min_cycle;Max_cycle;Signal;HPM_P1;HPM_P2
2024/02/15 00:02:23;;;;;;;;;;;;;;;7.41;53.72;99178.56;5071374;28;19913;-78
2024/02/15 00:04:48;;;;;;;;;;;;;;;7.37;53.69;99173.09;5070693;28;20369;-79
2024/02/15 00:07:13;;;;;;;;;;;;;;;7.36;53.67;99177.78;5071640;28;19916;-78
2024/02/15 00:09:38;;;;;;;;;;;;;;;7.35;54.12;99180.97;5070406;28;20023;-78
2024/02/15 00:12:04;;;;;;;;;;;;;;;7.35;53.28;99172.72;5070327;28;19947;-77
2024/02/15 00:14:31;;;;;;;;;;;;;;;7.31;53.74;99177.44;5070344;28;19913;-79
2024/02/15 00:16:56;;;;;;;;;;;;;;;7.33;53.49;99180.56;5070532;28;19966;-78
2024/02/15 00:19:21;;;;;;;;;;;;;;;7.35;53.68;99181.72;5070408;28;20431;-78
2024/02/15 00:21:47;;;;;;;;;;;;;;;7.33;53.26;99175.09;5070499;28;19914;-79
2024/02/15 00:24:13;;;;;;;;;;;;;;;7.35;53.51;99176.22;5070147;28;19919;-77
2024/02/15 00:26:38;;;;;;;;;;;;;;;7.34;53.02;99180.19;5070187;28;19916;-78
2024/02/15 00:29:04;;;;;;;;;;;;;;;7.33;53.65;99177.84;5070095;28;19993;-79
2024/02/15 00:31:29;;;;;;;;;;;;;;;7.33;52.70;99169.59;5070105;28;19912;-78
2024/02/15 00:33:55;;;;;;;;;;;;;;;7.33;53.88;99180.56;5069994;28;19920;-79
2024/02/15 00:36:20;;;;;;;;;;;;;;;7.29;52.47;99182.56;5070392;28;19915;-78
2024/02/15 00:38:45;;;;;;;;;;;;;;;7.30;52.43;99186.88;5070282;28;19940;-77
2024/02/15 00:41:10;;;;;;;;;;;;;;;7.32;53.34;99187.25;5070313;28;19970;-78
2024/02/15 00:43:36;;;;;;;;;;;;;;;7.28;53.22;99181.78;5070017;28;19919;-78
2024/02/15 00:46:01;;;;;;;;;;;;;;;7.34;53.42;99171.94;5053167;28;20380;-79
2024/02/15 00:48:28;;;;;;;;;;;;;;;7.35;53.06;99181.72;5053498;28;20004;-77
2024/02/15 00:50:54;;;;;;;;;;;;;;;7.31;52.68;99175.47;5070147;28;19922;-78
2024/02/15 00:53:20;;;;;;;;;;;;;;;7.27;53.40;99180.22;5069937;28;19912;-79
2024/02/15 00:55:45;;;;;;;;;;;;;;;7.31;52.93;99180.19;5071478;28;19912;-79
2024/02/15 00:58:10;;;;;;;;;;;;;;;7.35;52.88;99170.72;5073533;28;20303;-80
2024/02/15 01:00:36;;;;;;;;;;;;;;;7.38;52.81;99180.16;5073385;28;19912;-79
2024/02/15 01:03:01;;;;;;;;;;;;;;;7.44;54.01;99177.75;5056889;28;19912;-78
2024/02/15 01:05:27;;;;;;;;;;;;;;;7.34;54.49;99174.69;5073692;28;19916;-78
2024/02/15 01:07:52;;;;;;;;;;;;;;;7.27;53.33;99174.72;5073383;28;19920;-79
2024/02/15 01:10:17;;;;;;;;;;;;;;;7.31;54.02;99169.97;5073580;28;19927;-78
2024/02/15 01:12:44;;;;;;;;;;;;;;;7.25;54.18;99171.59;5074627;28;20304;-79
2024/02/15 01:15:09;;;;;;;;;;;;;;;7.23;53.65;99170.44;5073262;28;19946;-78
2024/02/15 01:17:34;;;;;;;;;;;;;;;7.26;53.92;99166.88;5074464;28;20364;-78
2024/02/15 01:19:59;;;;;;;;;;;;;;;7.24;54.91;99166.50;5073461;28;19919;-79
2024/02/15 01:22:27;;;;;;;;;;;;;;;7.27;53.63;99158.25;5073531;28;19912;-78
2024/02/15 01:24:52;;;;;;;;;;;;;;;7.22;54.83;99166.91;5074348;28;19960;-78
2024/02/15 01:27:17;;;;;;;;;;;;;;;7.25;53.82;99152.34;5073199;28;19946;-79
2024/02/15 01:29:43;;;;;;;;;;;;;;;7.07;54.65;99134.41;5073260;28;20388;-79
2024/02/15 01:32:08;;;;;;;;;;;;;;;7.21;54.89;99170.84;5073248;28;19920;-80
2024/02/15 01:34:34;;;;;;;;;;;;;;;7.24;54.16;99159.03;5073289;28;19920;-78
2024/02/15 01:36:59;;;;;;;;;;;;;;;7.22;54.34;99168.88;5072912;28;20014;-78
2024/02/15 01:39:24;;;;;;;;;;;;;;;7.17;55.40;99169.31;5072973;28;19912;-80
2024/02/15 01:41:55;;;;;;;;;;;;;;;7.13;54.13;99160.28;5072716;28;20447;-78
2024/02/15 01:44:21;;;;;;;;;;;;;;;7.19;53.71;99172.41;5073015;28;20399;-78
2024/02/15 01:46:47;;;;;;;;;;;;;;;7.14;54.02;99170.88;5072897;28;19920;-77
2024/02/15 01:49:13;;;;;;;;;;;;;;;7.18;53.77;99174.38;5074030;28;20003;-78
2024/02/15 01:51:40;;;;;;;;;;;;;;;7.12;54.53;99167.75;5072579;28;19956;-78
2024/02/15 01:54:06;;;;;;;;;;;;;;;7.13;53.50;99174.81;5072943;28;19912;-77
2024/02/15 01:56:32;;;;;;;;;;;;;;;7.12;53.49;99180.69;5072815;28;19913;-78
2024/02/15 01:58:57;;;;;;;;;;;;;;;7.11;53.98;99168.16;5072386;28;20391;-78
2024/02/15 02:01:23;;;;;;;;;;;;;;;7.00;53.65;99170.16;5069323;28;19913;-78
2024/02/15 02:03:48;;;;;;;;;;;;;;;6.95;54.04;99166.66;5065984;28;19971;-77
2024/02/15 02:06:13;;;;;;;;;;;;;;;6.89;54.17;99172.97;5072600;28;20390;-78
2024/02/15 02:08:39;;;;;;;;;;;;;;;6.87;54.65;99169.88;5072551;28;19921;-77
2024/02/15 02:11:04;;;;;;;;;;;;;;;6.81;54.87;99176.97;5072418;28;19982;-77
2024/02/15 02:13:29;;;;;;;;;;;;;;;6.80;54.44;99180.88;5072637;28;20387;-77
2024/02/15 02:15:56;;;;;;;;;;;;;;;6.80;55.02;99180.88;5072502;28;20003;-78
2024/02/15 02:18:21;;;;;;;;;;;;;;;6.83;54.34;99185.56;5072284;28;20368;-79
2024/02/15 02:20:47;;;;;;;;;;;;;;;6.81;54.19;99182.44;5072450;28;19913;-78
2024/02/15 02:23:16;;;;;;;;;;;;;;;6.79;54.64;99185.59;5073542;28;20456;-77
2024/02/15 02:25:42;;;;;;;;;;;;;;;6.78;55.07;99186.75;5072314;28;19912;-78
2024/02/15 02:28:08;;;;;;;;;;;;;;;6.74;55.28;99190.72;5072293;28;19926;-77
2024/02/15 02:30:34;;;;;;;;;;;;;;;6.79;54.64;99193.81;5071796;28;20284;-78
2024/02/15 02:33:00;;;;;;;;;;;;;;;6.78;55.99;99191.47;5073077;28;20284;-79
2024/02/15 02:35:25;;;;;;;;;;;;;;;6.72;56.17;99190.31;5072161;28;19965;-79
2024/02/15 02:37:52;;;;;;;;;;;;;;;6.69;56.28;99202.13;5073123;28;19912;-78
2024/02/15 02:40:18;;;;;;;;;;;;;;;6.62;56.69;99200.16;5071688;28;19920;-78
2024/02/15 02:42:46;;;;;;;;;;;;;;;6.62;55.59;99196.63;5072920;28;20305;-78
2024/02/15 02:45:12;;;;;;;;;;;;;;;6.66;56.52;99205.63;5072422;28;19935;-78
2024/02/15 02:47:37;;;;;;;;;;;;;;;6.62;57.17;99200.16;5072364;28;20273;-78
2024/02/15 02:50:03;;;;;;;;;;;;;;;6.63;56.26;99204.47;5071363;28;20087;-77
2024/02/15 02:52:28;;;;;;;;;;;;;;;6.67;56.09;99201.72;5071602;28;19912;-78
2024/02/15 02:54:53;;;;;;;;;;;;;;;6.64;55.71;99191.50;5071991;28;19912;-78
2024/02/15 02:57:19;;;;;;;;;;;;;;;6.75;54.46;99179.31;5071372;28;19912;-78
2024/02/15 02:59:44;;;;;;;;;;;;;;;6.71;55.61;99192.28;5072365;28;19913;-80
2024/02/15 03:02:10;;;;;;;;;;;;;;;6.72;56.15;99198.56;5071642;28;20467;-78
2024/02/15 03:04:35;;;;;;;;;;;;;;;6.67;56.13;99201.72;5071876;28;19919;-78
2024/02/15 03:07:00;;;;;;;;;;;;;;;6.62;56.74;99196.63;5071125;28;19916;-79
2024/02/15 03:09:29;;;;;;;;;;;;;;;6.59;56.73;99195.47;5071283;28;19920;-79
2024/02/15 03:11:54;;;;;;;;;;;;;;;6.56;56.59;99185.28;5071013;28;20705;-79
2024/02/15 03:14:20;;;;;;;;;;;;;;;6.51;57.06;99194.69;5071498;28;19917;-77
2024/02/15 03:16:45;;;;;;;;;;;;;;;6.47;57.57;99199.41;5071374;28;19915;-77
2024/02/15 03:19:11;;;;;;;;;;;;;;;6.46;56.95;99199.81;5071979;28;20380;-77
2024/02/15 03:21:37;;;;;;;;;;;;;;;6.41;57.71;99206.50;5071337;28;19963;-77
2024/02/15 03:24:03;;;;;;;;;;;;;;;6.33;57.78;99207.69;5070921;28;19916;-78
2024/02/15 03:26:36;;;;;;;;;;;;;;;6.30;58.47;99203.00;5071127;28;19989;-78
2024/02/15 03:29:02;;;;;;;;;;;;;;;6.30;58.62;99205.75;5057843;28;19912;-78
2024/02/15 03:31:28;;;;;;;;;;;;;;;6.27;59.04;99209.25;5070843;28;19923;-77
2024/02/15 03:33:54;;;;;;;;;;;;;;;6.23;59.51;99208.50;5072489;28;20006;-77
2024/02/15 03:36:20;;;;;;;;;;;;;;;6.23;58.99;99208.50;5072296;28;20357;-77
2024/02/15 03:38:46;;;;;;;;;;;;;;;6.23;59.20;99213.19;5070874;28;19913;-77
2024/02/15 03:41:11;;;;;;;;;;;;;;;6.17;59.84;99198.31;5070598;28;19920;-78
2024/02/15 03:43:37;;;;;;;;;;;;;;;6.19;59.43;99204.97;5070647;28;19927;-78
2024/02/15 03:46:02;;;;;;;;;;;;;;;6.16;60.03;99203.00;5072232;28;19935;-77
2024/02/15 03:48:27;;;;;;;;;;;;;;;6.10;60.64;99205.38;5071870;28;20319;-76
2024/02/15 03:50:53;;;;;;;7.50;5.60;;;;;;;5.54;60.26;99123.16;5069735;28;20939;-78
2024/02/15 03:53:18;;;;;;;11.65;5.60;;;;;;;5.83;59.74;99178.75;5070021;28;20116;-78
2024/02/15 03:55:44;;;;;;;6.75;4.93;;;;;;;5.99;59.58;99190.91;5070367;28;20028;-78
2024/02/15 03:58:09;;;;;;;;;;;;;;;6.16;58.72;99204.97;5071538;28;20472;-78
2024/02/15 04:00:34;;;;;;;;;;;;;;;6.21;59.32;99205.34;5070537;28;19912;-78
2024/02/15 04:03:00;;;;;;;;;;;;;;;6.15;59.22;99204.19;5072425;28;19920;-78
2024/02/15 04:05:26;;;;;;;;;;;;;;;6.21;59.38;99207.34;5070547;28;19935;-76
2024/02/15 04:07:52;;;;;;;;;;;;;;;6.18;59.56;99210.84;5070117;28;20399;-77
2024/02/15 04:10:18;;;;;;;;;;;;;;;6.12;60.50;99210.47;5070417;28;19923;-76
2024/02/15 04:12:43;;;;;;;;;;;;;;;6.13;60.25;99207.34;5070452;28;19912;-77
2024/02/15 04:15:11;;;;;;;;;;;;;;;6.17;60.89;99212.03;5070589;28;19916;-78
2024/02/15 04:17:40;;;;;;;;;;;;;;;6.15;60.46;99220.66;5071319;28;19942;-77
2024/02/15 04:20:06;;;;;;;;;;;;;;;6.15;60.50;99220.66;5070362;28;20003;-77
2024/02/15 04:22:36;;;;;;;;;;;;;;;6.11;60.05;99217.91;5070067;28;20027;-77
2024/02/15 04:25:01;;;;;;;;;;;;;;;6.12;59.61;99215.97;5070476;28;19917;-78
2024/02/15 04:27:27;;;;;;;;;;;;;;;6.15;60.14;99217.91;5070480;28;19962;-77
2024/02/15 04:29:52;;;;;;;;;;;;;;;6.15;59.92;99217.91;5070313;28;20308;-78
2024/02/15 04:32:19;;;;;;;;;;;;;;;6.09;59.67;99216.72;5072831;28;20407;-77
2024/02/15 04:34:46;;;;;;;;;;;;;;;6.08;60.57;99212.44;5074676;28;19985;-78
2024/02/15 04:37:13;;;;;;;;;;;;;;;6.09;60.19;99219.47;5073902;28;19923;-77
2024/02/15 04:39:39;;;;;;;;;;;;;;;6.10;59.59;99210.06;5074317;28;20350;-78
2024/02/15 04:42:06;;;;;;;;;;;;;;;6.15;59.49;99211.66;5074048;28;19908;-77
2024/02/15 04:44:34;;;;;;;;;;;;;;;6.11;60.33;99217.91;5073991;28;19955;-77
2024/02/15 04:47:00;;;;;;;;;;;;;;;6.12;58.99;99215.97;5073972;28;19915;-77
2024/02/15 04:49:27;;;;;;;;;;;;;;;6.14;59.35;99221.84;5074921;28;20339;-78
2024/02/15 04:51:52;;;;;;;;;;;;;;;6.10;59.90;99219.09;5073885;28;19915;-77
2024/02/15 04:54:18;;;;;;;;;;;;;;;6.10;59.82;99218.31;5073495;28;19916;-77
2024/02/15 04:56:43;;;;;;;;;;;;;;;6.16;59.78;99219.47;5062302;28;19909;-77
2024/02/15 04:59:14;;;;;;;;;;;;;;;6.17;60.40;99217.50;5073796;28;20418;-76
2024/02/15 05:01:42;;;;;;;;;;;;;;;6.16;60.13;99222.22;5044631;28;19924;-78
2024/02/15 05:04:08;;;;;;;;;;;;;;;6.17;59.93;99225.75;5074745;28;19969;-77
2024/02/15 05:06:33;;;;;;;;;;;;;;;6.15;59.63;99220.66;5073310;28;19916;-76
2024/02/15 05:08:59;;;;;;;;;;;;;;;6.16;59.39;99230.44;5070147;28;19924;-77
2024/02/15 05:11:25;;;;;;;;;;;;;;;6.18;60.26;99235.56;5070491;28;19919;-77
2024/02/15 05:13:50;;;;;;;;;;;;;;;6.17;60.81;99233.97;5053475;28;19995;-78
2024/02/15 05:16:16;;;;;;;;;;;;;;;6.09;59.65;99233.97;5069998;28;19954;-78
2024/02/15 05:18:41;;;;;;;;;;;;;;;6.10;59.91;99235.56;5054682;28;19920;-78
2024/02/15 05:21:09;;;;;;;;;;;;;;;6.08;60.15;99243.41;5069810;28;19927;-75
2024/02/15 05:23:39;;;;;;;;;;;;;;;6.04;59.44;99248.09;5069863;28;19916;-77
2024/02/15 05:26:05;;;;;;;;;;;;;;;6.07;59.53;99243.78;5069953;28;19917;-78
2024/02/15 05:28:30;;;;;;;;;;;;;;;6.09;59.78;99257.88;5070017;28;19977;-79
2024/02/15 05:31:28;;;;;;;;;;;;;;;6.11;59.70;99261.03;5069655;28;19912;-77
2024/02/15 05:33:54;;;;;;;;;;;;;;;6.07;60.35;99257.50;5041699;28;19916;-77
2024/02/15 05:36:20;;;;;;;;;;;;;;;6.09;60.10;99260.63;5069527;28;20387;-78
2024/02/15 05:38:46;;;;;;;;;;;;;;;6.08;60.18;99264.56;5069549;28;19921;-79
2024/02/15 05:41:12;;;;;;;;;;;;;;;6.08;60.46;99264.56;5069794;28;19913;-78
2024/02/15 05:43:38;;;;;;;;;;;;;;;6.07;60.21;99274.75;5068838;28;19923;-77
2024/02/15 05:46:04;;;;;;;;;;;;;;;6.10;61.50;99279.44;5069383;28;19913;-77
2024/02/15 05:48:29;;;;;;;;;;;;;;;6.08;60.04;99270.06;5053725;28;19913;-78
2024/02/15 05:50:55;;;;;;;;;;;;;;;6.17;60.29;99284.16;5070070;28;20029;-78
2024/02/15 05:53:20;;;;;;;;;;;;;;;6.17;59.63;99286.09;5069327;28;20380;-77
2024/02/15 05:55:46;;;;;;;;;;;;;;;6.17;59.30;99286.88;5069443;28;20358;-77
2024/02/15 05:58:13;;;;;;;;;;;;;;;6.16;61.22;99288.06;5053796;28;19917;-76
2024/02/15 06:00:39;;;;;;;;;;;;;;;6.15;61.07;99291.22;5069215;28;19970;-77
2024/02/15 06:03:05;;;;;;;;;;;;;;;6.15;59.29;99291.97;5053848;28;19912;-78
2024/02/15 06:05:32;;;;;;;;;;;;;;;6.03;60.06;99293.16;5069283;28;20437;-78
2024/02/15 06:07:57;;;;;;;;;;;;;;;6.12;60.25;99306.50;5068927;28;19951;-78
2024/02/15 06:10:22;;;;;;;;;;;;;;;6.15;59.85;99302.19;5053582;28;19921;-79
2024/02/15 06:12:48;;;;;;;;;;;;;;;6.11;60.33;99308.44;5053822;28;19974;-78
2024/02/15 06:15:16;;;;;;;;;;;;;;;6.11;59.47;99311.19;5068789;28;20411;-78
2024/02/15 06:17:43;;;;;;;;;;;;;;;6.13;59.58;99311.59;5068786;28;19970;-79
2024/02/15 06:20:11;;;;;;;;;;;;;;;6.11;59.55;99313.94;5069073;28;20289;-78
2024/02/15 06:22:37;;;;;;;;;;;;;;;6.17;60.30;99311.59;5068949;28;20011;-78
2024/02/15 06:25:03;;;;;;;;;;;;;;;6.28;59.43;99317.06;5053357;28;20308;-78
2024/02/15 06:27:28;;;;;;;;;;;;;;;6.38;58.15;99328.06;5068964;28;19924;-79
2024/02/15 06:40:49;;;;;;;;;;;;;;;6.81;56.20;99331.50;5051068;28;19975;-78
2024/02/15 06:43:16;;;;;;;;;;;;;;;6.89;57.09;99324.81;5052495;28;19944;-78
2024/02/15 06:45:46;;;;;;;;;;;;;;;7.00;57.39;99329.50;5052243;28;19923;-77
2024/02/15 06:48:12;;;;;;;;;;;;;;;7.07;56.07;99333.00;5051453;28;19966;-79
2024/02/15 06:50:37;;;;;;;;;;;;;;;7.15;54.97;99342.03;5067967;28;19909;-79
2024/02/15 06:53:02;;;;;;;;;;;;;;;7.25;54.83;99330.19;5068214;28;19909;-78
2024/02/15 06:55:28;;;;;;;;;;;;;;;7.30;55.50;99327.03;5051988;28;19909;-79
2024/02/15 06:57:55;;;;;;;;;;;;;;;7.44;53.95;99326.19;5052760;28;19919;-77
2024/02/15 07:00:20;;;;;;;;;;;;;;;7.45;53.74;99330.53;5052559;28;19912;-79
2024/02/15 07:02:45;;;;;;;;;;;;;;;7.48;53.53;99336.00;5068044;28;19917;-79
2024/02/15 07:05:11;;;;;;;;;;;;;;;7.51;54.12;99331.66;5052535;28;19924;-79
2024/02/15 07:07:36;;;;;;;;;;;;;;;7.55;54.20;99327.72;5067404;28;19974;-79
2024/02/15 07:10:02;;;;;;;;;;;;;;;7.59;53.98;99333.22;5052589;28;19920;-79
2024/02/15 07:12:28;;;;;;;;;;;;;;;7.60;53.46;99337.50;5067766;28;19986;-78
2024/02/15 07:14:54;;;;;;;;;;;;;;;7.60;52.78;99330.03;5067350;28;20368;-79
2024/02/15 07:17:20;;;;;;;;;;;;;;;7.71;53.11;99338.25;5066060;28;19999;-78
2024/02/15 07:19:48;;;;;;;;;;;;;;;7.78;53.28;99334.69;5066876;28;20369;-79
2024/02/15 07:22:14;;;;;;;;;;;;;;;7.92;52.37;99334.56;5065209;28;19913;-79
2024/02/15 07:24:39;;;;;;;;;;;;;;;8.07;52.44;99341.56;5050175;28;20300;-79
2024/02/15 07:27:05;;;;;;;;;;;;;;;8.07;51.20;99339.59;5066988;28;19913;-78
2024/02/15 07:29:32;;;;;;;;;;;;;;;8.08;51.37;99337.59;5067265;28;19912;-78
2024/02/15 07:31:59;;;;;;;;;;;;;;;8.11;49.68;99331.31;5067239;28;19917;-78
2024/02/15 07:34:26;;;;;;;;;;;;;;;8.18;50.81;99336.75;5051841;28;20357;-79
2024/02/15 07:36:51;;;;;;;;;;;;;;;8.26;51.49;99340.25;5066239;28;19966;-79
2024/02/15 07:39:23;;;;;;;;;;;;;;;8.28;49.73;99335.88;5065352;28;20016;-79
2024/02/15 07:41:49;;;;;;;;;;;;;;;8.18;49.75;99331.25;5066342;28;19995;-78
2024/02/15 07:44:14;;;;;;;;;;;;;;;8.14;49.67;99335.97;5066529;28;20054;-78
2024/02/15 07:46:40;;;;;;;;;;;;;;;8.14;50.81;99342.28;5050760;28;19924;-78
2024/02/15 07:49:06;;;;;;;;;;;;;;;8.07;50.39;99347.84;5066371;28;19928;-78
2024/02/15 07:51:31;;;;;;;;;;;;;;;8.06;50.25;99343.53;5050801;28;19913;-79
2024/02/15 07:53:57;;;;;;;;;;;;;;;8.10;50.40;99335.22;5067167;28;20312;-78
2024/02/15 07:56:22;;;;;;;;;;;;;;;8.04;50.37;99347.84;5051427;28;19923;-78
2024/02/15 07:58:48;;;;;;;;;;;;;;;8.11;50.63;99345.84;5051351;28;20376;-78
2024/02/15 08:01:13;;;;;;;;;;;;;;;8.36;50.49;99342.16;5066520;28;19909;-78
2024/02/15 08:03:44;;;;;;;;;;;;;;;8.46;49.51;99346.78;5066872;28;19947;-78
2024/02/15 08:06:09;;;;;;;;;;;;;;;8.56;49.81;99340.38;5066668;28;19912;-80
2024/02/15 08:08:35;;;;;;;;;;;;;;;8.49;49.51;99340.47;5066639;28;19931;-78
2024/02/15 08:11:02;;;;;;;;;;;;;;;8.44;49.65;99340.88;5066276;28;19927;-78
2024/02/15 08:13:29;;;;;;;;;;;;;;;8.50;49.35;99336.50;5050989;28;19909;-79
2024/02/15 08:15:54;;;;;;;;;;;;;;;8.55;48.82;99333.34;5066477;28;20020;-78
2024/02/15 08:18:20;;;;;;;;;;;;;;;8.68;47.76;99328.88;5066614;28;20023;-78
2024/02/15 08:20:45;;;;;;;;;;;;;;;8.88;48.78;99340.88;5066531;28;19908;-78
2024/02/15 08:23:10;;;;;;;;;;;;;;;8.89;48.90;99330.63;5066832;28;19963;-77
2024/02/15 08:25:38;;;;;;;;;;;;;;;8.88;47.86;99340.09;5066423;28;19913;-79
2024/02/15 08:28:05;;;;;;;;;;;;;;;8.97;48.34;99343.16;5051105;28;19955;-77
2024/02/15 08:30:30;;;;;;;;;;;;;;;8.97;48.17;99343.94;5049773;28;19908;-79
2024/02/15 08:32:55;;;;;;;;;;;;;;;9.20;47.66;99354.31;5051152;28;19928;-78
2024/02/15 08:35:21;;;;;;;;;;;;;;;9.19;47.64;99341.72;5066396;28;19912;-78
2024/02/15 08:37:48;;;;;;;;;;;;;;;9.37;46.29;99350.56;5066629;28;19923;-78
2024/02/15 08:40:15;;;;;;;;;;;;;;;9.37;46.26;99344.28;5066358;28;19976;-78
2024/02/15 08:42:43;;;;;;;;;;;;;;;9.40;46.94;99346.22;5066435;28;19939;-77
2024/02/15 08:45:09;;;;;;;;;;;;;;;9.61;46.13;99343.19;5050825;28;19915;-78
2024/02/15 08:47:37;;;;;;;;;;;;;;;9.70;46.24;99343.47;5050854;28;19912;-77
2024/02/15 08:50:03;;;;;;;;;;;;;;;9.80;46.39;99339.78;5065987;28;19909;-78
2024/02/15 08:52:28;;;;;;;;;;;;;;;9.66;47.31;99342.72;5066442;28;19915;-78
2024/02/15 08:54:54;;;;;;;;;;;;;;;9.72;47.63;99346.56;5050683;28;19909;-79
2024/02/15 08:57:19;;;;;;;;;;;;;;;9.82;46.63;99335.81;5066293;28;20542;-77
2024/02/15 08:59:44;;;;;;;;;;;;;;;9.88;46.66;99337.69;5050682;28;20311;-78
2024/02/15 09:02:10;;;;;;;;;;;;;;;9.90;46.36;99338.03;5066116;28;19938;-78
2024/02/15 09:04:35;;;;;;;;;;;;;;;10.00;46.13;99337.13;5050720;28;19913;-78
2024/02/15 09:07:03;;;;;;;;;;;;;;;10.17;46.22;99332.56;5051377;28;19916;-79
2024/02/15 09:09:30;;;;;;;;;;;;;;;10.25;45.41;99345.03;5070943;28;19924;-76
2024/02/15 09:11:55;;;;;;;;;;;;;;;10.26;44.98;99334.78;5070881;28;19912;-78
2024/02/15 09:14:20;;;;;;;;;;;;;;;10.25;45.85;99328.47;5069089;28;19966;-79
2024/02/15 09:16:46;;;;;;;;;;;;;;;10.27;45.87;99328.84;5069157;28;19955;-78
2024/02/15 09:19:12;;;;;;;;;;;;;;;10.43;44.77;99326.19;5072747;28;20350;-78
2024/02/15 09:21:37;;;;;;;;;;;;;;;10.43;46.03;99323.44;5074332;28;20450;-78
2024/02/15 09:24:02;;;;;;;;;;;;;;;10.52;44.83;99320.16;5072772;28;19963;-77
2024/02/15 09:26:28;;;;;;;;;;;;;;;10.43;44.95;99326.19;5073820;28;19908;-78
2024/02/15 09:28:53;;;;;;;;;;;;;;;10.27;44.53;99312.28;5072884;28;20018;-78
2024/02/15 09:31:18;;;;;;;;;;;;;;;10.07;45.39;99320.44;5074417;28;19908;-77
2024/02/15 09:33:44;;;;;;;;;;;;;;;10.15;45.55;99319.13;5072514;28;19908;-77
2024/02/15 09:36:12;;;;;;;;;;;;;;;10.21;45.97;99313.94;5072648;28;20380;-77
2024/02/15 09:38:37;;;;;;;;;;;;;;;10.19;45.59;99314.34;5073776;28;19912;-78
2024/02/15 09:41:02;;;;;;;;;;;;;;;10.25;45.80;99309.13;5072750;28;20403;-78
2024/02/15 09:43:29;;;;;;;;;;;;;;;10.11;45.80;99312.91;5072396;28;19999;-78
2024/02/15 09:45:55;;;;;;;;;;;;;;;10.02;46.58;99300.81;5064904;28;20003;-78
2024/02/15 09:48:23;;;;;;;;;;;;;;;9.94;46.71;99305.66;5068247;28;20000;-77
2024/02/15 09:50:52;;;;;;;;;;;;;;;10.02;46.34;99289.75;5056308;28;20065;-78
2024/02/15 09:53:20;;;;;;;;;;;;;;;10.19;46.37;99289.50;5072877;28;19913;-78
2024/02/15 09:55:46;;;;;;;;;;;;;;;10.28;46.23;99296.47;5072645;28;19912;-77
2024/02/15 09:58:12;;;;;;;;;;;;;;;10.34;46.26;99289.28;5072330;28;19913;-76
2024/02/15 10:00:37;;;;;;;;;;;;;;;10.34;46.57;99283.75;5072844;28;19916;-77
2024/02/15 10:03:05;;;;;;;;;;;;;;;10.26;45.93;99274.81;5072676;28;20303;-80
2024/02/15 10:05:31;;;;;;;;;;;;;;;10.16;46.53;99273.78;5073790;28;19912;-76
2024/02/15 10:07:56;;;;;;;;;;;;;;;10.34;46.65;99267.97;5051610;28;20362;-78
2024/02/15 10:10:22;;;;;;;;;;;;;;;10.48;46.06;99266.94;5052531;28;20376;-75
2024/02/15 10:12:51;;;;;;;;;;;;;;;10.57;46.10;99261.63;5053587;28;19912;-79
2024/02/15 10:15:36;;;;;;;;;;;;;;;10.61;46.52;99248.53;5052342;28;19966;-78
2024/02/15 10:18:02;;;;;;;;;;;;;;;10.69;46.25;99249.19;5034343;28;19921;-78
2024/02/15 10:20:27;;;;;;;;;;;;;;;10.84;47.42;99240.22;5053423;28;20285;-76
2024/02/15 10:22:59;;;;;;;;;;;;;;;11.04;46.21;99242.94;5051922;28;19947;-76
2024/02/15 10:25:26;;;;;;;;;;;;;;;11.15;44.74;99235.22;5068159;28;19916;-76
2024/02/15 10:27:53;;;;;;;;;;;;;;;11.21;45.02;99227.97;5068284;28;20372;-77
2024/02/15 10:30:19;;;;;;;;;;;;;;;11.32;45.52;99220.25;5041356;28;19999;-77
2024/02/15 10:32:45;;;;;;;;;;;;;;;11.35;45.22;99219.38;5056720;28;19955;-78
2024/02/15 10:35:18;;;;;;;;;;;;;;;11.31;44.60;99206.81;5060849;28;19956;-77
2024/02/15 10:37:44;;;;;;;;;;;;;;;11.48;45.75;99204.88;5049843;28;19948;-78
2024/02/15 10:40:09;;;;;;;;;;;;;;;11.60;46.03;99196.66;5044058;28;19909;-78
2024/02/15 10:42:36;;;;;;;;;;;;;;;11.67;44.58;99185.44;5052648;28;19912;-78
2024/02/15 10:45:05;;;;;;;;;;;;;;;11.69;44.37;99194.06;5051126;28;19920;-78
2024/02/15 10:47:30;;;;;;;;;;;;;;;11.61;43.95;99180.84;5052366;28;20507;-79
2024/02/15 10:49:57;;;;;;;;;;;;;;;11.66;43.56;99183.09;5051326;28;20003;-77
2024/02/15 10:52:24;;;;;;;;;;;;;;;11.74;43.85;99177.00;5066715;28;20009;-77
2024/02/15 10:54:50;;;;;;;;;;;;;;;11.75;44.05;99173.00;5052681;28;19986;-79
2024/02/15 10:57:22;;;;;;;;;;;;;;;11.78;44.61;99177.69;5066494;28;20416;-78
2024/02/15 10:59:57;;;;;;;;;;;;;;;11.91;44.36;99176.97;5068267;28;19939;-78
2024/02/15 11:02:37;;;;;;;;;;;;;;;11.92;43.28;99162.72;5051157;28;19920;-77
2024/02/15 11:05:09;;;;;;;;;;;;;;;11.92;42.92;99165.47;5046398;28;19995;-78
2024/02/15 11:07:35;;;;;;;;;;;;;;;11.91;43.03;99163.13;5068042;28;20384;-79
2024/02/15 11:10:01;;;;;;;;;;;;;;;11.93;42.01;99167.03;5051318;28;19970;-76
2024/02/15 11:12:27;;;;;;;;;;;;;;;12.00;43.34;99146.66;5052543;28;19970;-77
2024/02/15 11:14:53;;;;;;;;;;;;;;;11.98;42.39;99154.66;5052074;28;20376;-79
2024/02/15 11:17:37;;;;;;;;;;;;;;;12.01;43.11;99145.47;5051098;28;19913;-78
2024/02/15 11:20:02;;;;;;;;;;;;;;;12.04;42.80;99142.63;5067526;28;19952;-78
2024/02/15 11:22:28;;;;;;;;;;;;;;;12.06;43.72;99133.84;5067728;28;19979;-76
2024/02/15 11:24:53;;;;;;;;;;;;;;;12.06;42.79;99133.84;5066785;28;19913;-78
2024/02/15 11:27:29;;;;;;;;;;;;;;;12.09;42.82;99131.00;5060439;28;20390;-78
2024/02/15 11:30:12;;;;;;;;;;;;;;;12.00;42.61;99132.81;5046956;28;20403;-79
2024/02/15 11:32:39;;;;;;;;;;;;;;;12.17;42.34;99128.84;5052269;28;19939;-79
2024/02/15 11:35:11;;;;;;;;;;;;;;;12.20;42.70;99125.16;5050926;28;20277;-79
2024/02/15 11:37:49;;;;;;;;;;;;;;;12.37;43.62;99118.38;5041358;28;19917;-78
2024/02/15 11:40:16;;;;;;;;;;;;;;;12.27;42.42;99121.44;5049539;28;19912;-80
2024/02/15 11:42:42;;;;;;;;;;;;;;;12.28;41.70;99120.22;5055730;28;20278;-79
2024/02/15 11:45:08;;;;;;;;;;;;;;;12.34;42.28;99124.00;5055822;28;20285;-78
2024/02/15 11:47:36;;;;;;;;;;;;;;;12.40;42.53;99114.72;5066646;28;19913;-78
2024/02/15 11:50:02;;;;;;;;;;;;;;;12.31;41.75;99124.88;5050325;28;19913;-77
2024/02/15 11:52:28;;;;;;;;;;;;;;;12.36;43.49;99119.56;5050732;28;19920;-77
2024/02/15 11:54:53;;;;;;;;;;;;;;;12.36;41.41;99105.72;5066707;28;19917;-79
2024/02/15 11:57:36;;;;;;;;;;;;;;;12.61;42.61;99113.34;5062210;28;19953;-80
2024/02/15 12:19:17;;;;;;;;;;;;;;;12.66;40.76;99115.56;5070751;28;19989;-76
2024/02/15 12:21:43;;;;;;;;;;;;;;;12.67;40.89;99105.25;5068960;28;19956;-78
2024/02/15 12:24:08;;;;;;;;;;;;;;;12.89;41.65;99104.19;5070694;28;19962;-77
2024/02/15 12:26:35;;;;;;;;;;;;;;;12.92;41.04;99106.06;5069505;28;19969;-76
2024/02/15 12:29:01;;;;;;;;;;;;;;;12.78;40.97;99106.47;5071070;28;19931;-77
2024/02/15 12:31:26;;;;;;;;;;;;;;;12.73;41.06;99103.47;5046365;28;20003;-78
2024/02/15 12:34:02;;;;;;;;;;;;;;;12.63;41.23;99116.44;5052948;28;20010;-78
2024/02/15 12:36:28;;;;;;;;;;;;;;;12.30;42.05;99110.25;5050494;28;19921;-78
2024/02/15 12:39:00;;;;;;;;;;;;;;;12.18;41.50;99102.66;5052431;28;19919;-78
2024/02/15 12:41:26;;;;;;;;;;;;;;;12.03;42.67;99116.13;5070369;28;19912;-76
2024/02/15 12:43:54;;;;;;;;;;;;;;;11.92;42.47;99103.78;5071143;28;19964;-77
2024/02/15 12:46:19;;;;;;;;;;;;;;;11.85;43.06;99104.75;5070119;28;19946;-78
2024/02/15 12:48:45;;;;;;;;;;;;;;;11.91;42.29;99105.00;5070013;28;20368;-78
2024/02/15 12:51:14;;;;;;;;;;;;;;;11.95;42.16;99111.19;5068597;28;19956;-77
2024/02/15 12:53:41;;;;;;;;;;;;;;;12.03;42.54;99102.28;5058044;28;19908;-78
2024/02/15 12:56:08;;;;;;;;;;;;;;;11.98;42.26;99110.34;5075402;28;20384;-78
2024/02/15 12:58:34;;;;;;;;;;;;;;;12.03;42.28;99109.81;5063789;28;19962;-78
2024/02/15 13:01:01;;;;;;;;;;;;;;;12.03;42.11;99109.81;5073667;28;19951;-78
2024/02/15 13:03:26;;;;;;;;;;;;;;;12.09;42.61;99110.84;5074885;28;19916;-79
2024/02/15 13:05:51;;;;;;;;;;;;;;;12.00;42.33;99110.66;5073928;28;19912;-78
2024/02/15 13:08:18;;;;;;;;;;;;;;;12.09;42.19;99103.31;5073693;28;19921;-79
2024/02/15 13:10:43;;;;;;;;;;;;;;;12.12;42.46;99109.94;5073855;28;19948;-77
2024/02/15 13:13:13;;;;;;;;;;;;;;;12.06;42.17;99106.94;5073796;28;19946;-79
2024/02/15 13:15:40;;;;;;;;;;;;;;;12.13;42.68;99109.53;5072845;28;19948;-78
2024/02/15 13:18:05;;;;;;;;;;;;;;;12.04;42.52;99101.06;5073870;28;19923;-78
2024/02/15 13:20:35;;;;;;;;;;;;;;;12.00;42.84;99102.38;5072672;28;20007;-77